Time;durP1;ratioP1;P1;durP2;ratioP2;P2;SDS_P1;SDS_P2;PMS_P1;PMS_P2;Temp;Humidity;BMP_temperature;BMP_pressure;BME280_temperature;BME280_humidity;BME280_pressure;Samples;Min_cycle;Max_cycle;Signal;HPM_P1;HPM_P2
2023/07/25 00:00:46;;;;;;;7.18;2.20;;;;;;;;;;4931636;28;98231;-78
2023/07/25 00:03:13;;;;;;;4.97;2.40;;;;;;;;;;4931351;28;99795;-78
2023/07/25 00:05:39;;;;;;;5.25;2.42;;;;;;;;;;4933843;28;99882;-79
2023/07/25 00:08:06;;;;;;;5.25;2.25;;;;;;;;;;4931207;28;98876;-80
2023/07/25 00:10:33;;;;;;;7.28;2.60;;;;;;;;;;4930857;28;99101;-79
2023/07/25 00:13:00;;;;;;;6.20;2.20;;;;;;;;;;4931303;28;98141;-78
2023/07/25 00:15:26;;;;;;;6.85;2.80;;;;;;;;;;4929967;28;99445;-77
2023/07/25 00:17:53;;;;;;;7.05;2.33;;;;;;;;;;4930982;28;100294;-78
2023/07/25 00:20:19;;;;;;;5.03;2.17;;;;;;;;;;4929691;28;98319;-80
2023/07/25 00:22:46;;;;;;;7.00;3.22;;;;;;;;;;4932516;28;98732;-78
2023/07/25 00:25:12;;;;;;;4.80;2.70;;;;;;;;;;4933008;28;100098;-77
2023/07/25 00:27:38;;;;;;;2.95;2.30;;;;;;;;;;4931479;28;98501;-79
2023/07/25 00:30:05;;;;;;;8.27;2.67;;;;;;;;;;4930360;28;100043;-78
2023/07/25 00:32:35;;;;;;;2.95;2.25;;;;;;;;;;4930336;28;98389;-78
2023/07/25 00:35:02;;;;;;;9.50;2.30;;;;;;;;;;4929873;28;99587;-77
2023/07/25 00:37:29;;;;;;;6.88;3.05;;;;;;;;;;4930622;28;98828;-76
2023/07/25 00:39:56;;;;;;;10.27;3.20;;;;;;;;;;4930453;28;98182;-78
2023/07/25 00:42:23;;;;;;;18.25;2.60;;;;;;;;;;4929448;28;101105;-78
2023/07/25 00:44:49;;;;;;;5.38;2.08;;;;;;;;;;4930561;28;99211;-79
2023/07/25 00:47:16;;;;;;;3.00;2.60;;;;;;;;;;4933529;28;99487;-78
2023/07/25 00:49:43;;;;;;;6.57;2.33;;;;;;;;;;4930833;28;98868;-78
2023/07/25 00:52:10;;;;;;;5.32;2.63;;;;;;;;;;4931785;28;98200;-79
2023/07/25 00:54:45;;;;;;;5.90;2.78;;;;;;;;;;4949259;28;98727;-79
2023/07/25 00:57:12;;;;;;;3.30;2.45;;;;;;;;;;4949427;28;98884;-79
2023/07/25 00:59:38;;;;;;;7.70;3.03;;;;;;;;;;4950483;28;98196;-78
2023/07/25 01:02:05;;;;;;;5.25;2.38;;;;;;;;;;4947661;28;99344;-78
2023/07/25 01:04:31;;;;;;;5.88;2.50;;;;;;;;;;4949418;28;99196;-78
2023/07/25 01:06:59;;;;;;;2.55;2.30;;;;;;;;;;4949873;28;98199;-78
2023/07/25 01:09:35;;;;;;;4.25;2.78;;;;;;;;;;4951610;28;98393;-78
2023/07/25 01:12:03;;;;;;;4.32;2.63;;;;;;;;;;4948713;28;98442;-80
2023/07/25 01:14:31;;;;;;;8.70;2.75;;;;;;;;;;4948913;28;100020;-77
2023/07/25 01:17:04;;;;;;;5.95;2.60;;;;;;;;;;4932944;28;99121;-78
2023/07/25 01:19:30;;;;;;;;;;;;;;;;;;4931216;28;98188;-79
2023/07/25 01:21:57;;;;;;;6.80;2.70;;;;;;;;;;4929548;28;118655;-79
2023/07/25 01:24:24;;;;;;;9.43;2.60;;;;;;;;;;4928720;28;101137;-79
2023/07/25 01:26:51;;;;;;;6.65;2.38;;;;;;;;;;4922567;28;98130;-78
2023/07/25 01:29:17;;;;;;;5.57;2.90;;;;;;;;;;4910144;28;98540;-78
2023/07/25 01:31:44;;;;;;;3.75;2.20;;;;;;;;;;4944180;28;98804;-79
2023/07/25 01:34:10;;;;;;;6.82;2.50;;;;;;;;;;4948938;28;99329;-78
2023/07/25 01:36:37;;;;;;;7.05;2.67;;;;;;;;;;4948232;28;98828;-78
2023/07/25 01:39:03;;;;;;;2.72;2.35;;;;;;;;;;4948776;28;98254;-78
2023/07/25 01:41:30;;;;;;;9.48;3.25;;;;;;;;;;4940701;28;101508;-77
2023/07/25 01:43:56;;;;;;;4.00;2.70;;;;;;;;;;4936603;28;99121;-78
2023/07/25 01:46:23;;;;;;;13.57;2.80;;;;;;;;;;4928429;28;98252;-78
2023/07/25 01:48:50;;;;;;;4.60;3.10;;;;;;;;;;4930210;28;99585;-78
2023/07/25 01:51:17;;;;;;;5.00;3.38;;;;;;;;;;4929264;28;99122;-77
2023/07/25 01:53:43;;;;;;;7.55;3.05;;;;;;;;;;4933811;28;98063;-79
2023/07/25 01:56:10;;;;;;;2.60;2.45;;;;;;;;;;4930203;28;98904;-79
2023/07/25 01:58:36;;;;;;;4.03;2.58;;;;;;;;;;4927296;28;98465;-77
2023/07/25 02:01:02;;;;;;;4.47;2.50;;;;;;;;;;4929815;28;98518;-78
2023/07/25 02:03:30;;;;;;;10.35;3.20;;;;;;;;;;4928215;28;100097;-78
2023/07/25 02:05:56;;;;;;;6.50;2.65;;;;;;;;;;4929077;28;98422;-77
2023/07/25 02:08:22;;;;;;;3.05;2.58;;;;;;;;;;4929331;28;98462;-78
2023/07/25 02:10:49;;;;;;;6.32;3.08;;;;;;;;;;4931494;28;101535;-76
2023/07/25 02:13:16;;;;;;;13.23;3.65;;;;;;;;;;4933238;28;98366;-78
2023/07/25 02:15:42;;;;;;;6.10;3.13;;;;;;;;;;4926285;28;101216;-78
2023/07/25 02:18:09;;;;;;;4.45;2.90;;;;;;;;;;4911464;28;98266;-78
2023/07/25 02:20:35;;;;;;;6.50;3.25;;;;;;;;;;4912191;28;101270;-79
2023/07/25 02:23:02;;;;;;;5.93;2.75;;;;;;;;;;4911577;28;99974;-78
2023/07/25 02:25:29;;;;;;;5.43;2.85;;;;;;;;;;4927608;28;98534;-77
2023/07/25 02:27:55;;;;;;;7.32;2.47;;;;;;;;;;4938756;28;100265;-78
2023/07/25 02:30:21;;;;;;;4.50;2.75;;;;;;;;;;4935810;28;100036;-78
2023/07/25 02:32:48;;;;;;;7.82;2.95;;;;;;;;;;4936828;28;98252;-79
2023/07/25 02:35:14;;;;;;;5.43;3.13;;;;;;;;;;4940104;28;98538;-78
2023/07/25 02:37:41;;;;;;;11.88;3.47;;;;;;;;;;4932309;28;98826;-78
2023/07/25 02:40:07;;;;;;;11.35;2.85;;;;;;;;;;4932895;28;98244;-78
2023/07/25 02:42:34;;;;;;;5.63;3.20;;;;;;;;;;4932337;28;98737;-78
2023/07/25 02:45:01;;;;;;;10.40;3.40;;;;;;;;;;4933596;28;98320;-77
2023/07/25 02:47:28;;;;;;;4.85;3.00;;;;;;;;;;4930722;28;99468;-77
2023/07/25 02:49:54;;;;;;;6.72;2.83;;;;;;;;;;4931241;28;101693;-79
2023/07/25 02:52:21;;;;;;;3.58;2.70;;;;;;;;;;4932349;28;98202;-79
2023/07/25 02:54:47;;;;;;;8.05;2.90;;;;;;;;;;4931777;28;99378;-77
2023/07/25 02:57:14;;;;;;;5.03;2.92;;;;;;;;;;4933795;28;99559;-79
2023/07/25 02:59:40;;;;;;;6.50;3.10;;;;;;;;;;4932867;28;98451;-78
2023/07/25 03:02:07;;;;;;;5.30;3.13;;;;;;;;;;4930836;28;101696;-78
2023/07/25 03:04:33;;;;;;;9.02;3.15;;;;;;;;;;4932557;28;98365;-77
2023/07/25 03:07:00;;;;;;;5.25;2.80;;;;;;;;;;4929900;28;99403;-77
2023/07/25 03:09:26;;;;;;;5.70;3.20;;;;;;;;;;4932238;28;98843;-77
2023/07/25 03:11:54;;;;;;;7.35;3.20;;;;;;;;;;4930254;28;98277;-79
2023/07/25 03:14:20;;;;;;;7.72;2.75;;;;;;;;;;4929885;28;101123;-78
2023/07/25 03:16:47;;;;;;;7.85;4.00;;;;;;;;;;4932227;28;98991;-79
2023/07/25 03:19:14;;;;;;;6.22;3.05;;;;;;;;;;4946241;28;98220;-79
2023/07/25 03:21:40;;;;;;;6.97;3.20;;;;;;;;;;4950731;28;98799;-77
2023/07/25 03:24:08;;;;;;;8.68;3.33;;;;;;;;;;4951910;28;98178;-78
2023/07/25 03:26:34;;;;;;;8.63;3.20;;;;;;;;;;4944180;28;100434;-78
2023/07/25 03:29:00;;;;;;;4.88;2.72;;;;;;;;;;4914458;28;98811;-79
2023/07/25 03:31:27;;;;;;;10.38;3.08;;;;;;;;;;4927379;28;98305;-78
2023/07/25 03:33:54;;;;;;;7.22;3.55;;;;;;;;;;4912440;28;98546;-79
2023/07/25 03:36:20;;;;;;;12.60;4.88;;;;;;;;;;4922572;28;102064;-79
2023/07/25 03:38:47;;;;;;;7.15;3.22;;;;;;;;;;4930588;28;98375;-77
2023/07/25 03:41:13;;;;;;;5.78;2.72;;;;;;;;;;4935086;28;99639;-78
2023/07/25 03:43:40;;;;;;;6.82;4.82;;;;;;;;;;4931293;28;98229;-79
2023/07/25 03:46:06;;;;;;;6.80;3.00;;;;;;;;;;4930907;28;98760;-78
2023/07/25 03:48:33;;;;;;;4.63;2.78;;;;;;;;;;4931547;28;99051;-79
2023/07/25 03:50:59;;;;;;;7.82;2.30;;;;;;;;;;4931304;28;98409;-78
2023/07/25 03:53:26;;;;;;;10.00;2.80;;;;;;;;;;4931586;28;101054;-78
2023/07/25 03:55:52;;;;;;;10.52;2.63;;;;;;;;;;4932109;28;98877;-79
2023/07/25 03:58:19;;;;;;;9.20;2.38;;;;;;;;;;4929523;28;98362;-78
2023/07/25 04:00:45;;;;;;;4.47;2.40;;;;;;;;;;4929539;28;100415;-78
2023/07/25 04:03:12;;;;;;;5.85;2.35;;;;;;;;;;4932419;28;101697;-78
2023/07/25 04:05:41;;;;;;;11.68;3.05;;;;;;;;;;4931848;28;98731;-78
2023/07/25 04:08:07;;;;;;;13.25;2.70;;;;;;;;;;4930576;28;99137;-78
2023/07/25 04:10:34;;;;;;;10.10;2.60;;;;;;;;;;4943745;28;98254;-78
2023/07/25 04:13:00;;;;;;;5.82;2.42;;;;;;;;;;4944350;28;98462;-78
2023/07/25 04:15:27;;;;;;;3.70;2.10;;;;;;;;;;4929743;28;98743;-78
2023/07/25 04:17:53;;;;;;;8.57;2.55;;;;;;;;;;4931860;28;97911;-78
2023/07/25 04:20:20;;;;;;;5.80;2.33;;;;;;;;;;4931533;28;99577;-78
2023/07/25 04:22:47;;;;;;;3.80;2.40;;;;;;;;;;4930911;28;99867;-80
2023/07/25 04:25:16;;;;;;;7.03;2.17;;;;;;;;;;4932813;28;98342;-78
2023/07/25 04:27:42;;;;;;;8.43;3.08;;;;;;;;;;4946388;28;100923;-78
2023/07/25 04:30:09;;;;;;;3.50;1.88;;;;;;;;;;4946134;28;98313;-79
2023/07/25 04:32:35;;;;;;;3.90;2.35;;;;;;;;;;4928017;28;100500;-78
2023/07/25 04:35:02;;;;;;;5.47;2.25;;;;;;;;;;4945428;28;99008;-77
2023/07/25 04:37:29;;;;;;;5.55;2.47;;;;;;;;;;4931075;28;98247;-79
2023/07/25 04:39:55;;;;;;;6.97;2.00;;;;;;;;;;4930567;28;98421;-79
2023/07/25 04:42:21;;;;;;;8.75;2.85;;;;;;;;;;4929648;28;99692;-78
2023/07/25 04:44:48;;;;;;;6.05;2.53;;;;;;;;;;4933397;28;98197;-77
2023/07/25 04:47:14;;;;;;;6.57;2.20;;;;;;;;;;4929952;28;98837;-78
2023/07/25 04:49:41;;;;;;;4.53;2.20;;;;;;;;;;4928712;28;98384;-78
2023/07/25 04:52:07;;;;;;;12.38;2.63;;;;;;;;;;4931017;28;98524;-78
2023/07/25 04:54:34;;;;;;;11.40;2.38;;;;;;;;;;4929542;28;98729;-78
2023/07/25 04:57:00;;;;;;;10.00;3.13;;;;;;;;;;4931060;28;98287;-77
2023/07/25 04:59:27;;;;;;;4.32;2.20;;;;;;;;;;4929823;28;98278;-77
2023/07/25 05:01:53;;;;;;;3.22;2.00;;;;;;;;;;4929599;28;99977;-77
2023/07/25 05:04:20;;;;;;;8.80;2.53;;;;;;;;;;4930113;28;98314;-77
2023/07/25 05:06:46;;;;;;;4.18;2.40;;;;;;;;;;4933063;28;99359;-79
2023/07/25 05:09:14;;;;;;;6.05;3.38;;;;;;;;;;4929902;28;98247;-78
2023/07/25 05:11:41;;;;;;;10.55;2.67;;;;;;;;;;4930971;28;99516;-78
2023/07/25 05:14:08;;;;;;;6.88;2.60;;;;;;;;;;4928597;28;100025;-77
2023/07/25 05:16:34;;;;;;;5.55;2.03;;;;;;;;;;4930122;28;98235;-78
2023/07/25 05:19:01;;;;;;;4.88;2.45;;;;;;;;;;4948611;28;99409;-78
2023/07/25 05:21:27;;;;;;;7.25;2.60;;;;;;;;;;4948613;28;99995;-79
2023/07/25 05:23:54;;;;;;;7.72;3.33;;;;;;;;;;4934771;28;98194;-79
2023/07/25 05:26:20;;;;;;;6.70;2.65;;;;;;;;;;4930192;28;99230;-77
2023/07/25 05:28:48;;;;;;;6.63;2.03;;;;;;;;;;4918206;28;101398;-80
2023/07/25 05:31:15;;;;;;;8.23;2.20;;;;;;;;;;4910056;28;99546;-78
2023/07/25 05:33:41;;;;;;;3.00;1.90;;;;;;;;;;4911091;28;100024;-78
2023/07/25 05:36:07;;;;;;;5.25;2.97;;;;;;;;;;4930226;28;98564;-78
2023/07/25 05:38:34;;;;;;;5.03;2.03;;;;;;;;;;4929231;28;98634;-78
2023/07/25 05:41:02;;;;;;;7.82;2.30;;;;;;;;;;4939504;28;98975;-78
2023/07/25 05:43:29;;;;;;;6.15;2.95;;;;;;;;;;4935136;28;98698;-78
2023/07/25 05:45:55;;;;;;;7.30;2.03;;;;;;;;;;4933620;28;99400;-77
2023/07/25 05:48:22;;;;;;;5.88;1.92;;;;;;;;;;4933042;28;100036;-78
2023/07/25 05:50:51;;;;;;;5.38;2.38;;;;;;;;;;4936354;28;98366;-77
2023/07/25 05:53:18;;;;;;;3.72;2.08;;;;;;;;;;4913736;28;99890;-77
2023/07/25 05:55:48;;;;;;;5.90;1.95;;;;;;;;;;4913771;28;98545;-78
2023/07/25 05:58:17;;;;;;;4.88;1.73;;;;;;;;;;4914369;28;99712;-78
2023/07/25 06:00:44;;;;;;;7.35;2.55;;;;;;;;;;4913392;28;99176;-78
2023/07/25 06:03:12;;;;;;;8.45;2.00;;;;;;;;;;4912681;28;99073;-78
2023/07/25 06:05:39;;;;;;;3.83;1.55;;;;;;;;;;4928236;28;99704;-78
2023/07/25 06:08:08;;;;;;;4.50;1.92;;;;;;;;;;4930225;28;100229;-78
2023/07/25 06:10:35;;;;;;;3.67;1.48;;;;;;;;;;4929699;28;98730;-79
2023/07/25 06:13:04;;;;;;;3.13;2.13;;;;;;;;;;4932887;28;99433;-77
2023/07/25 06:15:34;;;;;;;4.13;1.95;;;;;;;;;;4919521;28;98837;-77
2023/07/25 06:18:01;;;;;;;6.95;1.77;;;;;;;;;;4917932;28;98530;-77
2023/07/25 06:20:28;;;;;;;2.13;1.55;;;;;;;;;;4915996;28;99862;-77
2023/07/25 06:22:55;;;;;;;3.03;1.73;;;;;;;;;;4933056;28;98280;-77
2023/07/25 06:25:21;;;;;;;3.97;2.08;;;;;;;;;;4925979;28;99420;-77
2023/07/25 06:27:47;;;;;;;6.57;1.48;;;;;;;;;;4932952;28;100261;-78
2023/07/25 06:30:14;;;;;;;6.07;1.35;;;;;;;;;;4928004;28;98457;-78
2023/07/25 06:32:41;;;;;;;3.20;1.23;;;;;;;;;;4932555;28;99023;-78
2023/07/25 06:35:09;;;;;;;6.15;1.83;;;;;;;;;;4925961;28;98283;-78
2023/07/25 06:37:36;;;;;;;2.25;1.10;;;;;;;;;;4913000;28;99600;-79
2023/07/25 06:40:03;;;;;;;7.20;1.40;;;;;;;;;;4920173;28;99890;-78
2023/07/25 06:42:30;;;;;;;4.80;1.40;;;;;;;;;;4927422;28;99071;-78
2023/07/25 06:44:59;;;;;;;6.85;1.58;;;;;;;;;;4936958;28;98425;-77
2023/07/25 06:47:26;;;;;;;4.25;1.13;;;;;;;;;;4912820;28;101726;-79
2023/07/25 06:49:52;;;;;;;5.88;1.23;;;;;;;;;;4913239;28;98187;-79
2023/07/25 06:52:19;;;;;;;4.07;1.10;;;;;;;;;;4921434;28;99355;-80
2023/07/25 06:54:45;;;;;;;3.58;0.88;;;;;;;;;;4934719;28;98906;-79
2023/07/25 06:57:12;;;;;;;7.38;1.10;;;;;;;;;;4932744;28;98699;-79
2023/07/25 06:59:38;;;;;;;4.18;1.25;;;;;;;;;;4926417;28;100019;-79
2023/07/25 07:02:08;;;;;;;3.75;0.82;;;;;;;;;;4927551;28;100379;-78
2023/07/25 07:04:34;;;;;;;3.67;1.33;;;;;;;;;;4922399;28;99628;-80
2023/07/25 07:07:01;;;;;;;6.45;1.10;;;;;;;;;;4928398;28;99432;-79
2023/07/25 07:09:27;;;;;;;2.20;0.90;;;;;;;;;;4926413;28;98109;-80
2023/07/25 07:11:54;;;;;;;3.70;0.95;;;;;;;;;;4916304;28;100296;-79
2023/07/25 07:14:20;;;;;;;6.22;1.08;;;;;;;;;;4915210;28;99932;-80
2023/07/25 07:16:47;;;;;;;7.47;1.10;;;;;;;;;;4933028;28;98332;-79
2023/07/25 07:19:13;;;;;;;3.75;1.13;;;;;;;;;;4927349;28;99060;-79
2023/07/25 07:21:40;;;;;;;4.88;0.77;;;;;;;;;;4926920;28;99857;-79
2023/07/25 07:24:07;;;;;;;6.97;0.80;;;;;;;;;;4931996;28;98926;-80
2023/07/25 07:26:33;;;;;;;3.50;1.23;;;;;;;;;;4941946;28;98893;-78
2023/07/25 07:29:01;;;;;;;2.95;1.10;;;;;;;;;;4923516;28;99631;-79
2023/07/25 07:31:28;;;;;;;2.47;0.50;;;;;;;;;;4929921;28;98792;-79
2023/07/25 07:34:11;;;;;;;1.02;0.80;;;;;;;;;;4941198;28;100033;-80
2023/07/25 07:36:37;;;;;;;;;;;;;;;;;;4942361;28;98214;-79
2023/07/25 07:39:04;;;;;;;2.38;0.60;;;;;;;;;;4934658;28;118137;-79
2023/07/25 07:41:30;;;;;;;2.08;0.98;;;;;;;;;;4922623;28;98578;-78
2023/07/25 07:43:57;;;;;;;1.60;0.60;;;;;;;;;;4920493;28;100331;-80
2023/07/25 07:46:25;;;;;;;2.33;0.63;;;;;;;;;;4929212;28;99642;-79
2023/07/25 07:48:52;;;;;;;0.85;0.40;;;;;;;;;;4930808;28;98352;-81
2023/07/25 07:51:18;;;;;;;2.90;0.82;;;;;;;;;;4921768;28;99797;-78
2023/07/25 07:53:45;;;;;;;1.88;0.85;;;;;;;;;;4916253;28;100348;-82
2023/07/25 07:56:16;;;;;;;2.08;0.77;;;;;;;;;;5110986;23;99143;-80
2023/07/25 07:58:44;;;;;;;2.13;0.77;;;;;;;;;;4950113;28;99357;-81
2023/07/25 08:01:16;;;;;;;7.68;1.08;;;;;;;;;;4951924;28;100143;-81
2023/07/25 08:03:43;;;;;;;1.98;0.82;;;;;;;;;;4934440;28;98874;-79
2023/07/25 08:06:09;;;;;;;1.67;0.82;;;;;;;;;;4931033;28;98952;-79
2023/07/25 08:08:36;;;;;;;0.98;0.40;;;;;;;;;;4931598;28;98216;-80
2023/07/25 08:11:03;;;;;;;3.20;0.60;;;;;;;;;;4931700;28;99585;-80
2023/07/25 08:13:29;;;;;;;1.00;0.60;;;;;;;;;;4950453;28;99141;-81
2023/07/25 08:15:56;;;;;;;2.03;0.75;;;;;;;;;;4934127;28;98260;-78
2023/07/25 08:18:22;;;;;;;0.75;0.73;;;;;;;;;;4944397;28;98417;-81
2023/07/25 08:20:56;;;;;;;9.52;0.70;;;;;;;;;;4949080;28;98755;-78
2023/07/25 08:23:22;;;;;;;0.57;0.50;;;;;;;;;;4936658;28;98363;-79
2023/07/25 08:25:49;;;;;;;2.92;0.57;;;;;;;;;;4935550;28;99144;-79
2023/07/25 08:28:16;;;;;;;1.13;0.60;;;;;;;;;;4949279;28;98287;-80
2023/07/25 08:30:43;;;;;;;1.67;0.80;;;;;;;;;;4949548;28;98616;-79
2023/07/25 08:33:12;;;;;;;2.65;0.63;;;;;;;;;;4950639;28;99210;-80
2023/07/25 08:35:39;;;;;;;0.85;0.50;;;;;;;;;;4948772;28;98247;-80
2023/07/25 08:38:09;;;;;;;3.22;0.70;;;;;;;;;;4938827;28;98577;-80
2023/07/25 08:40:35;;;;;;;0.95;0.40;;;;;;;;;;4950422;28;99077;-79
2023/07/25 08:43:02;;;;;;;3.08;0.57;;;;;;;;;;4953590;28;98225;-79
2023/07/25 08:45:30;;;;;;;0.95;0.50;;;;;;;;;;4949272;28;100226;-79
2023/07/25 08:48:00;;;;;;;1.92;0.70;;;;;;;;;;4950987;28;98228;-79
2023/07/25 08:50:28;;;;;;;4.05;0.75;;;;;;;;;;4948064;28;99057;-78
2023/07/25 08:52:55;;;;;;;2.05;0.70;;;;;;;;;;4948638;28;99358;-79
2023/07/25 08:55:22;;;;;;;1.60;0.60;;;;;;;;;;4932617;28;98232;-79
2023/07/25 08:57:51;;;;;;;3.28;0.70;;;;;;;;;;4944066;28;99381;-80
2023/07/25 09:00:17;;;;;;;1.33;0.63;;;;;;;;;;4949046;28;100114;-80
2023/07/25 09:02:47;;;;;;;0.73;0.60;;;;;;;;;;4950073;28;98253;-79
2023/07/25 09:05:18;;;;;;;1.83;0.77;;;;;;;;;;4953287;28;98984;-79
2023/07/25 09:07:45;;;;;;;1.20;0.60;;;;;;;;;;4949405;28;98274;-80
2023/07/25 09:10:11;;;;;;;1.15;0.55;;;;;;;;;;4949909;28;100733;-79
2023/07/25 09:12:38;;;;;;;5.65;1.00;;;;;;;;;;4949326;28;100424;-79
2023/07/25 09:15:05;;;;;;;3.90;0.70;;;;;;;;;;4950264;28;97882;-78
2023/07/25 09:17:31;;;;;;;2.08;0.73;;;;;;;;;;4949107;28;99437;-78
2023/07/25 09:19:58;;;;;;;2.75;0.70;;;;;;;;;;4945989;28;100343;-78
2023/07/25 09:22:31;;;;;;;1.05;0.63;;;;;;;;;;4946537;28;98307;-81
2023/07/25 09:24:58;;;;;;;3.95;0.65;;;;;;;;;;4949003;28;99554;-78
2023/07/25 09:27:25;;;;;;;2.25;0.68;;;;;;;;;;4953675;28;100013;-78
2023/07/25 09:29:52;;;;;;;5.03;0.80;;;;;;;;;;4944042;28;99444;-77
2023/07/25 09:32:24;;;;;;;1.50;0.88;;;;;;;;;;4947956;28;99922;-78
2023/07/25 09:34:55;;;;;;;2.55;1.23;;;;;;;;;;4946160;28;98298;-79
2023/07/25 09:37:22;;;;;;;0.95;0.50;;;;;;;;;;4930300;28;98108;-79
2023/07/25 09:39:48;;;;;;;2.05;0.70;;;;;;;;;;4940571;28;99336;-76
2023/07/25 09:42:20;;;;;;;0.85;0.75;;;;;;;;;;4944002;28;98260;-79
2023/07/25 09:44:47;;;;;;;0.80;0.60;;;;;;;;;;4948890;28;98496;-77
2023/07/25 09:47:14;;;;;;;0.55;0.55;;;;;;;;;;4946396;28;99102;-77
2023/07/25 09:49:47;;;;;;;3.33;1.00;;;;;;;;;;4952108;28;98118;-76
2023/07/25 09:52:13;;;;;;;0.90;0.60;;;;;;;;;;4946898;28;99941;-76
2023/07/25 09:54:40;;;;;;;1.55;0.60;;;;;;;;;;4945700;28;99912;-77
2023/07/25 09:57:07;;;;;;;2.13;0.70;;;;;;;;;;4944410;28;99463;-77
2023/07/25 09:59:34;;;;;;;3.33;0.70;;;;;;;;;;4946860;28;99205;-78
2023/07/25 10:02:01;;;;;;;0.80;0.70;;;;;;;;;;4947675;28;98279;-78
2023/07/25 10:04:29;;;;;;;1.55;0.50;;;;;;;;;;4948224;28;98228;-77
2023/07/25 10:06:56;;;;;;;3.25;0.60;;;;;;;;;;4946236;28;100456;-76
2023/07/25 10:09:24;;;;;;;0.30;0.30;;;;;;;;;;4944378;28;98973;-77
2023/07/25 10:11:52;;;;;;;6.10;2.75;;;;;;;;;;4952495;28;99524;-78
2023/07/25 10:14:18;;;;;;;2.70;0.77;;;;;;;;;;4942490;28;99903;-78
2023/07/25 10:16:46;;;;;;;3.28;0.60;;;;;;;;;;4942976;28;98656;-78
2023/07/25 10:19:12;;;;;;;0.88;0.63;;;;;;;;;;4945899;28;99949;-78
2023/07/25 10:21:49;;;;;;;0.75;0.45;;;;;;;;;;4949380;28;98215;-79
2023/07/25 10:24:16;;;;;;;3.25;0.70;;;;;;;;;;4932618;28;99535;-78
2023/07/25 10:26:52;;;;;;;1.73;0.70;;;;;;;;;;4948535;28;99981;-79
2023/07/25 10:29:34;;;;;;;1.13;0.60;;;;;;;;;;4942763;28;99169;-78
2023/07/25 10:32:02;;;;;;;1.42;0.68;;;;;;;;;;4947848;28;98832;-79
2023/07/25 10:34:45;;;;;;;1.75;0.95;;;;;;;;;;4956766;28;99552;-77
2023/07/25 10:37:28;;;;;;;1.15;0.70;;;;;;;;;;4951267;28;99481;-78
2023/07/25 10:40:04;;;;;;;1.27;0.70;;;;;;;;;;4950233;28;99977;-79
2023/07/25 10:42:50;;;;;;;0.52;0.50;;;;;;;;;;4952303;28;98211;-77
2023/07/25 10:45:32;;;;;;;2.78;0.60;;;;;;;;;;4939961;28;99367;-79
2023/07/25 10:47:59;;;;;;;1.98;0.75;;;;;;;;;;4946833;28;98965;-78
2023/07/25 10:50:47;;;;;;;1.27;0.47;;;;;;;;;;4951958;28;98280;-78
2023/07/25 10:53:20;;;;;;;2.25;0.85;;;;;;;;;;4933789;28;98831;-78
2023/07/25 10:56:04;;;;;;;0.35;0.35;;;;;;;;;;4952074;28;100075;-78
2023/07/25 10:58:39;;;;;;;0.40;0.40;;;;;;;;;;4951180;28;99712;-79
2023/07/25 11:01:06;;;;;;;1.20;0.82;;;;;;;;;;4950724;28;99831;-80
2023/07/25 11:03:34;;;;;;;1.17;0.80;;;;;;;;;;4947434;28;98261;-78
2023/07/25 11:06:06;;;;;;;1.40;0.60;;;;;;;;;;4947260;28;98489;-78
2023/07/25 11:08:40;;;;;;;6.30;0.80;;;;;;;;;;4932459;28;99944;-79
2023/07/25 11:11:11;;;;;;;1.73;0.73;;;;;;;;;;4932381;28;98149;-78
2023/07/25 11:13:39;;;;;;;2.63;0.57;;;;;;;;;;4931518;28;100252;-78
2023/07/25 11:16:06;;;;;;;0.88;0.63;;;;;;;;;;4950665;28;99001;-78
2023/07/25 11:18:35;;;;;;;3.30;0.80;;;;;;;;;;4955146;28;98289;-78
2023/07/25 11:21:03;;;;;;;2.08;0.80;;;;;;;;;;4950942;28;99145;-78
2023/07/25 11:23:30;;;;;;;1.98;0.70;;;;;;;;;;4951481;28;98302;-79
2023/07/25 11:25:58;;;;;;;2.38;0.68;;;;;;;;;;4950940;28;99382;-80
2023/07/25 11:28:28;;;;;;;0.70;0.50;;;;;;;;;;4950525;28;99291;-78
2023/07/25 11:30:55;;;;;;;1.27;0.50;;;;;;;;;;4945785;28;98494;-79
2023/07/25 11:33:22;;;;;;;4.32;0.73;;;;;;;;;;4934505;28;100375;-77
2023/07/25 11:35:52;;;;;;;1.45;0.80;;;;;;;;;;4944956;28;100113;-79
2023/07/25 11:38:18;;;;;;;1.42;0.82;;;;;;;;;;4950458;28;98221;-78
2023/07/25 11:40:51;;;;;;;2.53;0.52;;;;;;;;;;4933944;28;99396;-77
2023/07/25 11:43:18;;;;;;;1.02;0.60;;;;;;;;;;4931797;28;98234;-79
2023/07/25 11:45:45;;;;;;;3.45;0.93;;;;;;;;;;4947399;28;99508;-79
2023/07/25 11:48:13;;;;;;;4.90;1.10;;;;;;;;;;4950513;28;99249;-79
2023/07/25 11:50:42;;;;;;;0.43;0.43;;;;;;;;;;4950775;28;98261;-78
2023/07/25 11:53:10;;;;;;;2.70;0.70;;;;;;;;;;4951338;28;99377;-79
2023/07/25 11:55:37;;;;;;;2.97;0.70;;;;;;;;;;4949913;28;99055;-78
2023/07/25 11:58:03;;;;;;;1.52;0.70;;;;;;;;;;4951148;28;98263;-78
2023/07/25 12:00:42;;;;;;;5.10;1.25;;;;;;;;;;4950961;28;99894;-78
2023/07/25 12:03:21;;;;;;;4.32;0.60;;;;;;;;;;4953464;28;99866;-78
2023/07/25 12:05:55;;;;;;;1.60;0.50;;;;;;;;;;4951100;28;98513;-79
2023/07/25 12:08:31;;;;;;;5.63;0.88;;;;;;;;;;4951176;28;100543;-79
2023/07/25 12:11:04;;;;;;;1.77;0.68;;;;;;;;;;4951282;28;98368;-79
2023/07/25 12:13:30;;;;;;;5.88;1.02;;;;;;;;;;4950830;28;98073;-79
2023/07/25 12:15:58;;;;;;;2.67;0.60;;;;;;;;;;4948838;28;100145;-79
2023/07/25 12:18:31;;;;;;;2.15;0.75;;;;;;;;;;4950856;28;98198;-79
2023/07/25 12:20:59;;;;;;;3.20;0.80;;;;;;;;;;4951228;28;98873;-79
2023/07/25 12:23:27;;;;;;;2.38;0.65;;;;;;;;;;4949464;28;99973;-78
2023/07/25 12:25:54;;;;;;;1.65;0.70;;;;;;;;;;4954067;28;98197;-78
2023/07/25 12:28:21;;;;;;;5.82;0.75;;;;;;;;;;4938831;28;99159;-78
2023/07/25 12:30:47;;;;;;;6.30;1.05;;;;;;;;;;4930394;28;98242;-78
2023/07/25 12:33:14;;;;;;;2.88;0.70;;;;;;;;;;4931819;28;98517;-78
2023/07/25 12:35:40;;;;;;;2.47;0.50;;;;;;;;;;4931312;28;100024;-79
2023/07/25 12:38:07;;;;;;;1.08;0.98;;;;;;;;;;4930717;28;98385;-77
2023/07/25 12:40:33;;;;;;;2.80;0.57;;;;;;;;;;4929540;28;99417;-78
2023/07/25 12:43:00;;;;;;;4.72;0.70;;;;;;;;;;4931043;28;99028;-78
2023/07/25 12:45:26;;;;;;;1.58;0.70;;;;;;;;;;4945651;28;98563;-78
2023/07/25 12:47:52;;;;;;;1.35;0.47;;;;;;;;;;4953404;28;99443;-79
2023/07/25 12:50:19;;;;;;;1.77;0.60;;;;;;;;;;4949956;28;98211;-79
2023/07/25 12:52:45;;;;;;;0.50;0.50;;;;;;;;;;4948865;28;98606;-79
2023/07/25 12:55:12;;;;;;;0.50;0.47;;;;;;;;;;4948697;28;99943;-79
2023/07/25 12:57:39;;;;;;;2.08;0.70;;;;;;;;;;4950790;28;98148;-78
2023/07/25 13:00:06;;;;;;;1.38;0.57;;;;;;;;;;4950109;28;99571;-78
2023/07/25 13:02:33;;;;;;;2.85;0.50;;;;;;;;;;4950122;28;99360;-78
2023/07/25 13:05:00;;;;;;;0.98;0.50;;;;;;;;;;4948777;28;98288;-79
2023/07/25 13:07:26;;;;;;;0.57;0.57;;;;;;;;;;4950283;28;98720;-79
2023/07/25 13:09:56;;;;;;;1.58;0.40;;;;;;;;;;4949959;28;98308;-79
2023/07/25 13:12:22;;;;;;;0.82;0.45;;;;;;;;;;4948882;28;99743;-79
2023/07/25 13:14:49;;;;;;;1.00;0.50;;;;;;;;;;4949177;28;100016;-78
2023/07/25 13:17:16;;;;;;;2.90;0.43;;;;;;;;;;4949563;28;98106;-79
2023/07/25 13:19:42;;;;;;;1.40;0.60;;;;;;;;;;4949477;28;98529;-79
2023/07/25 13:22:09;;;;;;;0.85;0.70;;;;;;;;;;4948603;28;98898;-80
2023/07/25 13:24:35;;;;;;;2.30;0.85;;;;;;;;;;4941076;28;98380;-79
2023/07/25 13:27:02;;;;;;;0.35;0.35;;;;;;;;;;4930610;28;99402;-79
2023/07/25 13:29:28;;;;;;;0.82;0.40;;;;;;;;;;4952327;28;99100;-79
2023/07/25 13:31:55;;;;;;;0.30;0.30;;;;;;;;;;4946767;28;99409;-79
2023/07/25 13:34:22;;;;;;;0.50;0.50;;;;;;;;;;4948762;28;99906;-80
2023/07/25 13:36:50;;;;;;;0.52;0.30;;;;;;;;;;4950171;28;98233;-78
2023/07/25 13:39:17;;;;;;;0.73;0.60;;;;;;;;;;4949524;28;99511;-78
2023/07/25 13:41:43;;;;;;;1.10;0.40;;;;;;;;;;4948954;28;99979;-78
2023/07/25 13:44:10;;;;;;;1.48;0.60;;;;;;;;;;4949590;28;98626;-80
2023/07/25 13:46:36;;;;;;;0.40;0.40;;;;;;;;;;4949882;28;98623;-79
2023/07/25 13:49:03;;;;;;;0.40;0.40;;;;;;;;;;4948870;28;100131;-78
2023/07/25 13:51:32;;;;;;;0.45;0.45;;;;;;;;;;4952653;28;98288;-78
2023/07/25 13:53:59;;;;;;;1.13;0.60;;;;;;;;;;4948066;28;98911;-78
2023/07/25 13:56:25;;;;;;;3.05;0.57;;;;;;;;;;4948929;28;98266;-78
2023/07/25 13:58:52;;;;;;;1.98;0.82;;;;;;;;;;4949491;28;99213;-78
2023/07/25 14:01:18;;;;;;;0.80;0.50;;;;;;;;;;4948469;28;99919;-78
2023/07/25 14:03:45;;;;;;;1.77;0.50;;;;;;;;;;4950476;28;98262;-78
2023/07/25 14:06:11;;;;;;;0.90;0.65;;;;;;;;;;4952416;28;99721;-79
2023/07/25 14:08:38;;;;;;;2.92;0.70;;;;;;;;;;4952108;28;99969;-80
2023/07/25 14:11:04;;;;;;;0.70;0.60;;;;;;;;;;4953162;28;98170;-78
2023/07/25 14:13:30;;;;;;;0.95;0.70;;;;;;;;;;4955379;28;98597;-77
2023/07/25 14:15:59;;;;;;;0.52;0.43;;;;;;;;;;4952010;28;98284;-79
2023/07/25 14:18:25;;;;;;;0.73;0.50;;;;;;;;;;4951885;28;98943;-78
2023/07/25 14:20:52;;;;;;;0.47;0.47;;;;;;;;;;4952655;28;99919;-78
2023/07/25 14:23:22;;;;;;;0.40;0.40;;;;;;;;;;4951684;28;98337;-78
2023/07/25 14:25:48;;;;;;;0.40;0.40;;;;;;;;;;4952927;28;98562;-77
2023/07/25 14:28:14;;;;;;;0.40;0.40;;;;;;;;;;4952835;28;99395;-77
2023/07/25 14:30:41;;;;;;;0.70;0.50;;;;;;;;;;4953906;28;98741;-78
2023/07/25 14:33:09;;;;;;;0.57;0.57;;;;;;;;;;4952493;28;99448;-78
2023/07/25 14:35:35;;;;;;;4.50;0.68;;;;;;;;;;4958113;28;99151;-78
2023/07/25 14:38:02;;;;;;;1.23;0.50;;;;;;;;;;4952134;28;98572;-79
2023/07/25 14:40:31;;;;;;;3.03;0.60;;;;;;;;;;4952115;28;99903;-78
2023/07/25 14:42:58;;;;;;;0.85;0.50;;;;;;;;;;4951961;28;98244;-79